Time;durP1;ratioP1;P1;durP2;ratioP2;P2;SDS_P1;SDS_P2;PMS_P1;PMS_P2;Temp;Humidity;BMP_temperature;BMP_pressure;BME280_temperature;BME280_humidity;BME280_pressure;Samples;Min_cycle;Max_cycle;Signal;HPM_P1;HPM_P2
2021/09/02 00:00:15;;;;;;;14.25;8.57;;;;;;;;;;4774531;29;51287;-64
2021/09/02 00:02:41;;;;;;;27.63;10.35;;;;;;;;;;4774371;29;51253;-64
2021/09/02 00:05:08;;;;;;;30.50;9.57;;;;;;;;;;4774086;29;51036;-63
2021/09/02 00:07:34;;;;;;;20.98;10.30;;;;;;;;;;4774219;29;53313;-64
2021/09/02 00:09:59;;;;;;;22.17;9.20;;;;;;;;;;4774314;29;51062;-64
2021/09/02 00:12:25;;;;;;;23.13;9.82;;;;;;;;;;4771529;29;50929;-63
2021/09/02 00:14:51;;;;;;;19.63;9.60;;;;;;;;;;4774098;29;51654;-63
2021/09/02 00:17:18;;;;;;;23.30;10.38;;;;;;;;;;4774533;29;51055;-63
2021/09/02 00:19:44;;;;;;;19.48;9.50;;;;;;;;;;4774046;29;53847;-63
2021/09/02 00:22:10;;;;;;;20.95;9.77;;;;;;;;;;4763271;29;51063;-64
2021/09/02 00:24:36;;;;;;;20.75;9.63;;;;;;;;;;4773826;29;50944;-63
2021/09/02 00:27:02;;;;;;;22.73;10.57;;;;;;;;;;4774098;29;50929;-65
2021/09/02 00:29:28;;;;;;;18.48;9.65;;;;;;;;;;4773923;29;54113;-64
2021/09/02 00:31:54;;;;;;;20.30;9.38;;;;;;;;;;4770023;29;51567;-64
2021/09/02 00:34:20;;;;;;;20.23;9.20;;;;;;;;;;4773203;29;51221;-63
2021/09/02 00:36:46;;;;;;;15.90;9.77;;;;;;;;;;4774161;29;50975;-63
2021/09/02 00:39:12;;;;;;;21.52;9.70;;;;;;;;;;4774025;29;51132;-65
2021/09/02 00:41:38;;;;;;;22.55;10.23;;;;;;;;;;4773698;29;54027;-64
2021/09/02 00:44:04;;;;;;;19.90;10.48;;;;;;;;;;4773834;29;51544;-63
2021/09/02 00:46:30;;;;;;;18.20;10.55;;;;;;;;;;4771564;29;51776;-63
2021/09/02 00:48:56;;;;;;;25.98;11.23;;;;;;;;;;4773119;29;50993;-64
2021/09/02 00:51:22;;;;;;;22.27;10.13;;;;;;;;;;4774094;29;54213;-63
2021/09/02 00:53:50;;;;;;;30.45;11.25;;;;;;;;;;4773913;29;51079;-64
2021/09/02 00:56:16;;;;;;;19.05;10.43;;;;;;;;;;4767159;29;51635;-64
2021/09/02 00:58:43;;;;;;;23.98;10.80;;;;;;;;;;4773558;29;51169;-65
2021/09/02 01:01:09;;;;;;;24.90;10.32;;;;;;;;;;4774133;29;50917;-63
2021/09/02 01:03:35;;;;;;;15.13;10.75;;;;;;;;;;4773864;29;53899;-64
2021/09/02 01:06:02;;;;;;;26.05;10.90;;;;;;;;;;4714058;29;51567;-64
2021/09/02 01:08:29;;;;;;;19.48;10.32;;;;;;;;;;4741002;29;50988;-63
2021/09/02 01:10:55;;;;;;;21.02;10.25;;;;;;;;;;4741053;29;51266;-64
2021/09/02 01:13:21;;;;;;;23.55;10.25;;;;;;;;;;4739446;29;51810;-63
2021/09/02 01:15:47;;;;;;;23.67;10.95;;;;;;;;;;4740766;29;50880;-64
2021/09/02 01:18:13;;;;;;;20.67;11.02;;;;;;;;;;4740698;29;51666;-64
2021/09/02 01:20:39;;;;;;;19.73;10.35;;;;;;;;;;4740101;29;51125;-63
2021/09/02 01:23:06;;;;;;;20.42;10.07;;;;;;;;;;4740713;29;50858;-64
2021/09/02 01:25:35;;;;;;;20.20;11.15;;;;;;;;;;4740751;29;54863;-63
2021/09/02 01:28:04;;;;;;;25.77;10.70;;;;;;;;;;4739886;29;51132;-63
2021/09/02 01:30:31;;;;;;;24.13;11.50;;;;;;;;;;4740605;29;51066;-63
2021/09/02 01:32:58;;;;;;;20.70;10.40;;;;;;;;;;4730114;29;50975;-63
2021/09/02 01:35:24;;;;;;;24.90;11.95;;;;;;;;;;4739517;29;53532;-63
2021/09/02 01:37:55;;;;;;;27.60;10.50;;;;;;;;;;4740766;29;51058;-63
2021/09/02 01:40:28;;;;;;;24.50;10.07;;;;;;;;;;4739973;29;51052;-63
2021/09/02 01:42:54;;;;;;;38.92;11.35;;;;;;;;;;4740366;29;52679;-63
2021/09/02 01:45:21;;;;;;;22.80;11.27;;;;;;;;;;4084825;29;20004173;-63
2021/09/02 01:47:47;;;;;;;26.92;11.15;;;;;;;;;;4757494;29;52720;-63
2021/09/02 01:50:21;;;;;;;33.20;11.90;;;;;;;;;;4758211;29;51037;-63
2021/09/02 01:52:52;;;;;;;22.35;10.90;;;;;;;;;;4757903;29;52754;-63
2021/09/02 01:55:18;;;;;;;28.13;11.83;;;;;;;;;;4742746;29;50999;-63
2021/09/02 01:57:44;;;;;;;34.65;11.63;;;;;;;;;;4738081;29;52370;-63
2021/09/02 02:00:12;;;;;;;27.55;11.63;;;;;;;;;;4757783;29;51023;-63
2021/09/02 02:02:39;;;;;;;25.77;11.07;;;;;;;;;;4758075;29;52746;-64
2021/09/02 02:05:05;;;;;;;22.58;11.20;;;;;;;;;;4758037;29;51064;-62
2021/09/02 02:07:32;;;;;;;25.77;11.48;;;;;;;;;;4757903;29;51010;-63
2021/09/02 02:09:58;;;;;;;20.77;11.15;;;;;;;;;;4757883;29;51768;-62
2021/09/02 02:12:24;;;;;;;23.05;11.43;;;;;;;;;;4756862;29;51290;-64
2021/09/02 02:14:50;;;;;;;29.05;10.52;;;;;;;;;;4756849;29;52771;-64
2021/09/02 02:17:16;;;;;;;27.48;11.15;;;;;;;;;;4756617;29;50945;-63
2021/09/02 02:19:42;;;;;;;31.80;11.05;;;;;;;;;;4750405;29;51103;-63
2021/09/02 02:22:08;;;;;;;21.65;10.93;;;;;;;;;;4731715;29;50917;-63
2021/09/02 02:24:34;;;;;;;22.73;10.32;;;;;;;;;;4739873;29;52124;-63
2021/09/02 02:27:00;;;;;;;26.40;10.88;;;;;;;;;;4739749;29;51572;-63
2021/09/02 02:29:26;;;;;;;25.73;10.43;;;;;;;;;;4739257;29;51102;-63
2021/09/02 02:31:52;;;;;;;28.75;10.93;;;;;;;;;;4738754;29;51072;-62
2021/09/02 02:34:18;;;;;;;33.40;9.98;;;;;;;;;;4738670;29;51008;-63
2021/09/02 02:36:44;;;;;;;37.15;11.30;;;;;;;;;;4739140;29;54584;-63
2021/09/02 02:39:10;;;;;;;32.20;11.30;;;;;;;;;;4734324;29;50953;-64
2021/09/02 02:41:36;;;;;;;30.02;10.98;;;;;;;;;;4727830;29;51227;-63
2021/09/02 02:44:02;;;;;;;25.92;10.48;;;;;;;;;;4676602;29;51308;-63
2021/09/02 02:46:28;;;;;;;24.00;9.90;;;;;;;;;;4709828;29;54327;-62
2021/09/02 02:48:54;;;;;;;32.60;10.73;;;;;;;;;;4756000;29;50799;-63
2021/09/02 02:51:20;;;;;;;27.15;10.95;;;;;;;;;;4693937;29;51236;-63
2021/09/02 02:53:46;;;;;;;27.83;9.88;;;;;;;;;;4742789;29;50988;-62
2021/09/02 02:56:12;;;;;;;33.35;10.73;;;;;;;;;;4755705;29;51702;-62
2021/09/02 02:58:39;;;;;;;17.67;10.40;;;;;;;;;;4751490;29;51211;-65
2021/09/02 03:01:05;;;;;;;31.08;10.80;;;;;;;;;;4757851;29;51063;-63
2021/09/02 03:03:31;;;;;;;21.75;9.73;;;;;;;;;;4756058;29;50997;-64
2021/09/02 03:05:57;;;;;;;38.97;10.70;;;;;;;;;;4752766;29;50888;-63
2021/09/02 03:08:23;;;;;;;37.90;10.18;;;;;;;;;;4755567;29;51886;-64
2021/09/02 03:10:51;;;;;;;51.78;11.90;;;;;;;;;;4754954;29;51898;-64
2021/09/02 03:13:17;;;;;;;36.22;10.02;;;;;;;;;;4731043;29;52817;-63
2021/09/02 03:15:43;;;;;;;29.10;10.93;;;;;;;;;;4738962;29;50944;-64
2021/09/02 03:18:11;;;;;;;35.08;10.02;;;;;;;;;;4738241;29;51062;-65
2021/09/02 03:20:39;;;;;;;53.70;11.40;;;;;;;;;;4738431;29;51121;-64
2021/09/02 03:23:05;;;;;;;57.50;10.27;;;;;;;;;;4737349;29;51403;-65
2021/09/02 03:25:31;;;;;;;42.08;11.05;;;;;;;;;;4743071;29;51402;-64
2021/09/02 03:27:57;;;;;;;29.55;9.18;;;;;;;;;;4753191;29;51326;-64
2021/09/02 03:30:23;;;;;;;31.65;9.55;;;;;;;;;;4751473;29;52476;-64
2021/09/02 03:32:49;;;;;;;25.05;10.35;;;;;;;;;;4750063;29;50966;-63
2021/09/02 03:35:15;;;;;;;37.72;9.52;;;;;;;;;;4756765;29;50953;-67
2021/09/02 03:37:41;;;;;;;30.00;10.02;;;;;;;;;;4755884;29;51732;-64
2021/09/02 03:40:08;;;;;;;39.90;9.90;;;;;;;;;;4755907;29;50866;-65
2021/09/02 03:42:34;;;;;;;49.03;9.32;;;;;;;;;;4737415;29;51153;-64
2021/09/02 03:45:00;;;;;;;35.63;9.65;;;;;;;;;;4755842;29;51065;-62
2021/09/02 03:47:26;;;;;;;38.42;10.00;;;;;;;;;;4756667;29;51186;-64
2021/09/02 03:49:52;;;;;;;39.38;9.48;;;;;;;;;;4752667;29;52048;-62
2021/09/02 03:52:18;;;;;;;41.28;9.82;;;;;;;;;;4745834;29;51619;-65
2021/09/02 03:54:44;;;;;;;39.08;9.50;;;;;;;;;;4745512;29;51263;-63
2021/09/02 03:57:10;;;;;;;39.50;9.05;;;;;;;;;;4756726;29;51362;-64
2021/09/02 03:59:36;;;;;;;37.08;9.13;;;;;;;;;;4738874;29;50856;-63
2021/09/02 04:02:03;;;;;;;34.67;8.85;;;;;;;;;;4741586;29;51007;-63
2021/09/02 04:04:28;;;;;;;28.80;8.88;;;;;;;;;;4747607;29;51288;-63
2021/09/02 04:06:54;;;;;;;26.13;8.43;;;;;;;;;;4749744;29;51131;-63
2021/09/02 04:09:20;;;;;;;26.65;8.68;;;;;;;;;;4755653;29;50926;-63
2021/09/02 04:11:46;;;;;;;18.42;7.80;;;;;;;;;;4756427;29;51118;-63
2021/09/02 04:14:12;;;;;;;20.52;8.15;;;;;;;;;;4751922;29;54266;-63
2021/09/02 04:16:38;;;;;;;24.77;8.52;;;;;;;;;;4755778;29;51198;-64
2021/09/02 04:19:04;;;;;;;24.42;8.18;;;;;;;;;;4755630;29;51028;-63
2021/09/02 04:21:30;;;;;;;18.20;8.10;;;;;;;;;;4755246;29;51781;-64
2021/09/02 04:23:56;;;;;;;31.92;8.43;;;;;;;;;;4527033;29;51373;-63
2021/09/02 04:26:23;;;;;;;25.60;8.38;;;;;;;;;;4758712;29;51145;-63
2021/09/02 04:28:48;;;;;;;18.98;8.35;;;;;;;;;;4338784;29;52404;-63
2021/09/02 04:31:14;;;;;;;17.45;7.93;;;;;;;;;;4755881;29;50940;-63
2021/09/02 04:33:40;;;;;;;24.25;7.80;;;;;;;;;;4754439;29;51695;-62
2021/09/02 04:36:07;;;;;;;19.25;7.57;;;;;;;;;;4753381;29;52741;-63
2021/09/02 04:38:33;;;;;;;24.63;8.20;;;;;;;;;;4753612;29;51083;-63
2021/09/02 04:40:59;;;;;;;19.45;7.65;;;;;;;;;;4757095;29;52510;-63
2021/09/02 04:43:25;;;;;;;31.80;7.80;;;;;;;;;;4754910;29;51228;-63
2021/09/02 04:45:51;;;;;;;17.40;8.05;;;;;;;;;;4753373;29;51064;-66
2021/09/02 04:48:19;;;;;;;22.40;7.75;;;;;;;;;;4717572;29;50923;-63
2021/09/02 04:50:47;;;;;;;21.23;8.15;;;;;;;;;;4605761;29;51693;-68
2021/09/02 04:53:31;;;;;;;15.27;8.02;;;;;;;;;;4062789;33;51029;-71
2021/09/02 04:55:57;;;;;;;25.23;9.07;;;;;;;;;;4844947;29;51209;-69
2021/09/02 04:58:23;;;;;;;18.83;8.48;;;;;;;;;;4829482;29;52348;-64
2021/09/02 05:00:49;;;;;;;21.80;8.50;;;;;;;;;;4824542;29;50998;-69
2021/09/02 05:03:15;;;;;;;22.23;8.07;;;;;;;;;;4813530;29;51739;-69
2021/09/02 05:05:41;;;;;;;26.40;9.52;;;;;;;;;;4826396;29;51083;-68
2021/09/02 05:08:07;;;;;;;23.00;8.30;;;;;;;;;;4707429;29;51278;-67
2021/09/02 05:10:33;;;;;;;25.13;8.60;;;;;;;;;;4819434;29;52342;-71
2021/09/02 05:13:00;;;;;;;27.50;8.82;;;;;;;;;;4829440;29;51299;-66
2021/09/02 05:15:26;;;;;;;43.03;8.23;;;;;;;;;;4830809;29;50957;-67
2021/09/02 05:17:52;;;;;;;27.45;8.10;;;;;;;;;;4844933;29;51236;-66
2021/09/02 05:20:18;;;;;;;17.85;8.13;;;;;;;;;;4844656;29;52981;-63
2021/09/02 05:22:44;;;;;;;23.33;9.07;;;;;;;;;;4845283;29;51353;-65
2021/09/02 05:25:11;;;;;;;20.38;8.45;;;;;;;;;;4840706;29;51199;-70
2021/09/02 05:27:37;;;;;;;21.75;8.57;;;;;;;;;;4844812;29;51145;-69
2021/09/02 05:30:06;;;;;;;21.63;8.52;;;;;;;;;;4844573;29;50990;-70
2021/09/02 05:32:32;;;;;;;26.95;9.00;;;;;;;;;;4844105;29;54439;-65
2021/09/02 05:34:58;;;;;;;28.88;8.52;;;;;;;;;;4842869;29;51154;-66
2021/09/02 05:37:24;;;;;;;17.65;8.00;;;;;;;;;;4789610;29;51193;-65
2021/09/02 05:39:50;;;;;;;21.73;8.32;;;;;;;;;;4845054;29;50920;-64
2021/09/02 05:42:16;;;;;;;24.95;8.25;;;;;;;;;;4846434;29;52813;-69
2021/09/02 05:44:42;;;;;;;23.08;8.68;;;;;;;;;;4819461;28;51255;-67
2021/09/02 05:47:08;;;;;;;19.13;8.25;;;;;;;;;;4850420;28;50891;-71
2021/09/02 05:49:34;;;;;;;29.50;8.82;;;;;;;;;;4844741;29;51078;-66
2021/09/02 05:52:00;;;;;;;19.10;8.40;;;;;;;;;;4844231;29;50783;-68
2021/09/02 05:54:27;;;;;;;27.70;7.47;;;;;;;;;;4845055;29;53219;-63
2021/09/02 05:56:53;;;;;;;18.75;6.78;;;;;;;;;;4844814;29;51066;-72
2021/09/02 05:59:19;;;;;;;23.98;7.85;;;;;;;;;;4816692;29;51229;-69
2021/09/02 06:01:45;;;;;;;14.60;7.85;;;;;;;;;;4841177;28;51153;-67
2021/09/02 06:04:11;;;;;;;14.95;8.55;;;;;;;;;;4819950;29;52627;-64
2021/09/02 06:06:37;;;;;;;17.33;7.82;;;;;;;;;;4817816;29;51219;-66
2021/09/02 06:09:03;;;;;;;20.00;7.68;;;;;;;;;;4807768;29;52483;-67
2021/09/02 06:11:29;;;;;;;20.05;8.75;;;;;;;;;;4816001;29;51132;-66
2021/09/02 06:13:55;;;;;;;25.80;7.63;;;;;;;;;;4818077;29;51006;-67
2021/09/02 06:16:21;;;;;;;25.20;7.55;;;;;;;;;;4818698;29;52838;-68
2021/09/02 06:18:48;;;;;;;17.08;7.93;;;;;;;;;;4811625;29;52210;-65
2021/09/02 06:21:14;;;;;;;21.73;8.23;;;;;;;;;;4818122;29;51119;-69
2021/09/02 06:23:40;;;;;;;15.63;7.88;;;;;;;;;;4797171;29;51189;-71
2021/09/02 06:26:06;;;;;;;18.95;7.60;;;;;;;;;;4807859;29;53115;-67
2021/09/02 06:28:32;;;;;;;19.25;8.57;;;;;;;;;;4803058;29;51725;-68
2021/09/02 06:30:58;;;;;;;24.10;7.40;;;;;;;;;;4806729;29;51213;-72
2021/09/02 06:33:24;;;;;;;18.00;8.10;;;;;;;;;;4817619;29;51421;-67
2021/09/02 06:35:50;;;;;;;12.27;8.00;;;;;;;;;;4788802;29;51181;-65
2021/09/02 06:38:16;;;;;;;21.13;7.93;;;;;;;;;;4818054;29;51982;-67
2021/09/02 06:40:42;;;;;;;28.65;8.30;;;;;;;;;;4817555;29;51262;-68
2021/09/02 06:43:08;;;;;;;16.80;8.20;;;;;;;;;;4815277;29;51094;-65
2021/09/02 06:45:34;;;;;;;26.30;9.05;;;;;;;;;;4828511;29;51083;-67
2021/09/02 06:48:00;;;;;;;21.45;8.35;;;;;;;;;;4835786;29;52383;-68
2021/09/02 06:50:26;;;;;;;17.20;9.27;;;;;;;;;;4835872;29;50974;-68
2021/09/02 06:52:52;;;;;;;23.25;8.70;;;;;;;;;;4835256;29;51288;-68
2021/09/02 06:55:18;;;;;;;20.73;8.32;;;;;;;;;;4835955;29;51205;-69
2021/09/02 06:57:44;;;;;;;20.65;7.90;;;;;;;;;;4837020;29;50961;-68
2021/09/02 07:00:11;;;;;;;19.38;7.93;;;;;;;;;;4835585;29;52316;-69
2021/09/02 07:02:37;;;;;;;21.60;8.35;;;;;;;;;;4835695;29;51209;-68
2021/09/02 07:05:05;;;;;;;26.58;8.63;;;;;;;;;;4835874;29;51169;-72
2021/09/02 07:07:31;;;;;;;18.52;7.35;;;;;;;;;;4835336;29;51156;-65
2021/09/02 07:09:57;;;;;;;17.15;7.72;;;;;;;;;;4834756;29;52610;-65
2021/09/02 07:12:23;;;;;;;21.73;7.50;;;;;;;;;;4835059;29;51219;-69
2021/09/02 07:17:25;;;;;;;22.02;7.68;;;;;;;;;;4085238;33;50926;-68
2021/09/02 07:19:51;;;;;;;10.75;7.18;;;;;;;;;;4845144;29;51159;-69
2021/09/02 07:22:17;;;;;;;36.50;7.18;;;;;;;;;;4827721;29;52374;-71
2021/09/02 07:24:43;;;;;;;13.75;6.57;;;;;;;;;;4843837;29;50996;-69
2021/09/02 07:27:10;;;;;;;10.50;6.70;;;;;;;;;;4844522;29;50955;-71
2021/09/02 07:29:36;;;;;;;13.57;6.15;;;;;;;;;;4844191;29;51140;-67
2021/09/02 07:32:02;;;;;;;21.40;6.72;;;;;;;;;;4796630;29;52324;-68
2021/09/02 07:34:28;;;;;;;13.82;6.90;;;;;;;;;;4820802;29;54211;-70
2021/09/02 07:36:57;;;;;;;9.45;6.13;;;;;;;;;;4839547;29;51076;-67
2021/09/02 07:39:23;;;;;;;16.88;6.80;;;;;;;;;;4844176;29;50948;-65
2021/09/02 07:41:49;;;;;;;23.38;7.13;;;;;;;;;;4844128;29;51047;-66
2021/09/02 07:44:15;;;;;;;19.75;6.97;;;;;;;;;;4839389;29;52343;-69
2021/09/02 07:46:41;;;;;;;9.25;6.28;;;;;;;;;;4844821;29;51036;-66
2021/09/02 07:49:07;;;;;;;9.68;6.55;;;;;;;;;;4844499;29;50915;-67
2021/09/02 07:51:33;;;;;;;10.77;5.80;;;;;;;;;;4843613;29;51089;-70
2021/09/02 07:53:59;;;;;;;11.40;6.32;;;;;;;;;;4844190;29;50962;-67
2021/09/02 07:56:25;;;;;;;17.17;6.80;;;;;;;;;;4845224;29;54541;-68
2021/09/02 07:58:51;;;;;;;10.70;6.32;;;;;;;;;;4843307;29;51234;-64
2021/09/02 08:01:22;;;;;;;20.13;6.65;;;;;;;;;;4843799;29;51080;-66
2021/09/02 08:03:48;;;;;;;16.77;6.63;;;;;;;;;;4844388;29;51049;-67
2021/09/02 08:06:14;;;;;;;12.65;6.25;;;;;;;;;;4782332;29;52731;-68
2021/09/02 08:08:40;;;;;;;37.63;6.80;;;;;;;;;;4843647;29;52550;-67
2021/09/02 08:11:06;;;;;;;11.55;6.20;;;;;;;;;;4843962;29;51689;-66
2021/09/02 08:13:32;;;;;;;16.25;5.50;;;;;;;;;;4843881;29;50972;-66
2021/09/02 08:15:59;;;;;;;14.73;5.75;;;;;;;;;;4843787;29;50937;-68
2021/09/02 08:18:25;;;;;;;14.55;5.70;;;;;;;;;;4844733;29;52569;-65
2021/09/02 08:20:51;;;;;;;12.57;5.25;;;;;;;;;;4843912;29;50968;-66
2021/09/02 08:23:17;;;;;;;23.27;5.40;;;;;;;;;;4844314;29;51188;-70
2021/09/02 08:25:43;;;;;;;21.00;5.57;;;;;;;;;;4844616;29;51550;-67
2021/09/02 08:28:09;;;;;;;10.50;6.15;;;;;;;;;;4834547;29;53611;-67
2021/09/02 08:30:35;;;;;;;15.80;5.05;;;;;;;;;;4831692;29;51158;-64
2021/09/02 08:33:01;;;;;;;8.52;4.72;;;;;;;;;;4831858;29;50882;-68
2021/09/02 08:35:31;;;;;;;10.10;4.97;;;;;;;;;;4831297;29;50924;-64
2021/09/02 08:38:02;;;;;;;8.93;4.68;;;;;;;;;;4820114;29;50871;-64
2021/09/02 08:40:30;;;;;;;;;;;;;;;;;;4821945;29;53607;-66
2021/09/02 08:42:56;;;;;;;10.88;5.18;;;;;;;;;;4831866;29;51120;-65
2021/09/02 08:45:24;;;;;;;13.90;4.90;;;;;;;;;;4830763;29;50872;-68
2021/09/02 08:47:50;;;;;;;6.90;4.90;;;;;;;;;;4828525;29;51661;-66
2021/09/02 08:50:20;;;;;;;6.18;4.63;;;;;;;;;;4831943;29;54393;-69
2021/09/02 08:52:46;;;;;;;10.00;4.78;;;;;;;;;;4831815;29;51195;-66
2021/09/02 08:55:12;;;;;;;8.80;4.68;;;;;;;;;;4827691;29;50929;-67
2021/09/02 08:57:38;;;;;;;10.48;4.95;;;;;;;;;;4816758;29;50855;-66
2021/09/02 09:00:05;;;;;;;8.52;4.38;;;;;;;;;;4818732;29;51334;-66
2021/09/02 09:02:32;;;;;;;7.00;4.32;;;;;;;;;;4831267;29;53179;-68
2021/09/02 09:05:04;;;;;;;13.15;4.85;;;;;;;;;;4814497;29;51038;-67
2021/09/02 09:07:32;;;;;;;16.27;4.13;;;;;;;;;;4806365;29;52134;-67
2021/09/02 09:09:59;;;;;;;11.07;4.15;;;;;;;;;;4807783;29;51051;-64
2021/09/02 09:12:39;;;;;;;10.60;4.80;;;;;;;;;;4754549;29;59435;-67
2021/09/02 09:15:07;;;;;;;7.82;4.65;;;;;;;;;;4820358;29;51067;-74
2021/09/02 09:17:33;;;;;;;17.75;5.07;;;;;;;;;;4809889;29;51990;-66
2021/09/02 09:19:59;;;;;;;9.95;4.20;;;;;;;;;;4831247;29;51126;-65
2021/09/02 09:22:29;;;;;;;11.15;4.43;;;;;;;;;;4832346;29;50914;-67
2021/09/02 09:24:56;;;;;;;7.32;3.80;;;;;;;;;;4831478;29;53754;-69
2021/09/02 09:27:43;;;;;;;16.88;4.80;;;;;;;;;;4831425;29;51272;-68
2021/09/02 09:30:33;;;;;;;10.88;4.07;;;;;;;;;;4831852;29;51794;-67
2021/09/02 09:33:03;;;;;;;10.35;4.35;;;;;;;;;;4832169;29;51047;-66
2021/09/02 09:35:37;;;;;;;8.35;4.00;;;;;;;;;;4836245;29;53751;-67
2021/09/02 09:38:10;;;;;;;15.55;4.80;;;;;;;;;;4831800;29;50913;-67
2021/09/02 09:40:43;;;;;;;8.85;4.05;;;;;;;;;;4830708;29;51171;-69
2021/09/02 09:43:10;;;;;;;16.15;4.45;;;;;;;;;;4831237;29;50949;-65
2021/09/02 09:45:42;;;;;;;11.88;3.83;;;;;;;;;;4830451;29;51144;-67
2021/09/02 09:48:17;;;;;;;10.48;4.05;;;;;;;;;;4831189;29;54367;-66
2021/09/02 09:50:44;;;;;;;11.98;4.53;;;;;;;;;;4831306;29;51589;-67
2021/09/02 09:53:26;;;;;;;16.33;4.10;;;;;;;;;;4829709;29;51483;-66
2021/09/02 09:55:53;;;;;;;10.23;3.45;;;;;;;;;;4831864;29;51175;-69
2021/09/02 09:58:23;;;;;;;12.38;4.18;;;;;;;;;;4826864;29;53131;-68
2021/09/02 10:01:00;;;;;;;9.65;4.20;;;;;;;;;;4831545;29;50970;-68
2021/09/02 10:03:29;;;;;;;6.72;3.90;;;;;;;;;;4830696;29;51000;-67
2021/09/02 10:05:55;;;;;;;4.70;3.53;;;;;;;;;;4752232;29;51139;-69
2021/09/02 10:08:21;;;;;;;10.13;4.28;;;;;;;;;;4814864;29;51242;-68
2021/09/02 10:10:47;;;;;;;11.23;4.00;;;;;;;;;;4830698;29;52085;-66
2021/09/02 10:13:14;;;;;;;7.60;4.45;;;;;;;;;;4829711;29;50915;-66
2021/09/02 10:15:40;;;;;;;7.82;4.38;;;;;;;;;;4828999;29;51480;-67
2021/09/02 10:18:06;;;;;;;12.00;4.75;;;;;;;;;;4824419;29;51033;-68
2021/09/02 10:20:34;;;;;;;20.70;4.30;;;;;;;;;;4814474;29;53163;-66
2021/09/02 10:23:02;;;;;;;5.97;4.05;;;;;;;;;;4829914;29;52547;-67
2021/09/02 10:25:34;;;;;;;12.10;4.75;;;;;;;;;;4831053;29;50918;-67
2021/09/02 10:28:12;;;;;;;12.77;4.50;;;;;;;;;;4829423;29;51041;-66
2021/09/02 10:30:49;;;;;;;15.75;4.95;;;;;;;;;;4830152;29;50976;-66
2021/09/02 10:33:41;;;;;;;12.55;5.03;;;;;;;;;;4830742;29;54027;-66
2021/09/02 10:36:09;;;;;;;;;;;;;;;;;;4828455;29;50973;-66
2021/09/02 10:38:50;;;;;;;10.52;4.90;;;;;;;;;;4831149;29;51117;-68
2021/09/02 10:41:37;;;;;;;13.13;4.03;;;;;;;;;;4831254;29;50987;-66
2021/09/02 10:44:10;;;;;;;11.13;4.45;;;;;;;;;;4809724;29;52767;-65
2021/09/02 10:46:50;;;;;;;14.27;4.57;;;;;;;;;;4810596;29;51859;-64
2021/09/02 10:49:28;;;;;;;16.13;4.88;;;;;;;;;;4807984;29;52359;-67
2021/09/02 10:52:03;;;;;;;20.83;4.80;;;;;;;;;;4814991;29;50946;-64
2021/09/02 10:54:37;;;;;;;9.75;5.20;;;;;;;;;;4685599;29;51086;-66
2021/09/02 10:57:05;;;;;;;10.30;4.20;;;;;;;;;;4793069;29;53613;-66
2021/09/02 10:59:50;;;;;;;13.23;4.38;;;;;;;;;;4793067;29;51012;-64
2021/09/02 11:02:16;;;;;;;10.32;4.72;;;;;;;;;;4793086;29;50942;-64
2021/09/02 11:04:46;;;;;;;9.55;4.72;;;;;;;;;;4782191;29;51040;-64
2021/09/02 11:07:12;;;;;;;12.93;4.47;;;;;;;;;;4777620;29;52739;-64
2021/09/02 11:09:40;;;;;;;13.07;4.80;;;;;;;;;;4798228;29;53416;-66
2021/09/02 11:12:11;;;;;;;18.05;4.97;;;;;;;;;;4785865;29;51955;-65
2021/09/02 11:14:45;;;;;;;10.85;4.88;;;;;;;;;;4794741;29;72038;-64
2021/09/02 11:17:11;;;;;;;6.85;4.78;;;;;;;;;;4794623;29;72689;-66
2021/09/02 11:19:39;;;;;;;10.95;4.70;;;;;;;;;;4782507;29;82220;-65
2021/09/02 11:22:16;;;;;;;10.20;4.47;;;;;;;;;;4747562;29;74112;-68
2021/09/02 11:24:48;;;;;;;14.57;4.63;;;;;;;;;;4774888;29;72039;-67
2021/09/02 11:27:33;;;;;;;18.02;4.57;;;;;;;;;;4777807;29;71482;-68
2021/09/02 11:30:18;;;;;;;8.05;4.65;;;;;;;;;;4782240;29;53536;-65
2021/09/02 11:32:50;;;;;;;8.82;4.40;;;;;;;;;;4774106;29;52693;-63
2021/09/02 11:35:16;;;;;;;9.27;4.05;;;;;;;;;;4788350;29;51313;-64
2021/09/02 11:37:43;;;;;;;6.43;4.05;;;;;;;;;;4791982;29;51072;-64
2021/09/02 11:40:23;;;;;;;9.73;3.70;;;;;;;;;;4793584;29;50910;-64
2021/09/02 11:42:50;;;;;;;9.13;3.97;;;;;;;;;;4792331;29;70104;-64
2021/09/02 11:45:17;;;;;;;6.32;3.33;;;;;;;;;;4768442;29;51295;-64
2021/09/02 11:47:46;;;;;;;11.20;3.72;;;;;;;;;;4788558;29;51079;-63
2021/09/02 11:50:12;;;;;;;6.97;4.05;;;;;;;;;;4775213;29;52035;-66
2021/09/02 11:52:44;;;;;;;6.20;3.88;;;;;;;;;;4792304;29;54209;-65
2021/09/02 11:55:31;;;;;;;8.75;4.03;;;;;;;;;;4792985;29;51158;-65
2021/09/02 11:58:03;;;;;;;8.75;4.05;;;;;;;;;;4789115;29;51142;-65
2021/09/02 12:00:30;;;;;;;14.95;4.70;;;;;;;;;;4786159;29;51014;-64
2021/09/02 12:02:58;;;;;;;5.75;3.72;;;;;;;;;;4774940;29;51171;-65
2021/09/02 12:05:40;;;;;;;10.57;4.57;;;;;;;;;;4795158;29;51172;-66
2021/09/02 12:08:08;;;;;;;7.78;3.35;;;;;;;;;;4768792;29;51350;-67
2021/09/02 12:10:34;;;;;;;5.57;3.80;;;;;;;;;;4794788;29;51214;-67
2021/09/02 12:13:36;;;;;;;12.20;4.40;;;;;;;;;;4779633;29;51019;-67
2021/09/02 12:16:17;;;;;;;8.02;4.35;;;;;;;;;;4791277;29;52929;-65
2021/09/02 12:18:47;;;;;;;7.78;4.47;;;;;;;;;;4794517;29;50996;-66
2021/09/02 12:21:16;;;;;;;9.38;4.63;;;;;;;;;;4806051;29;51252;-64
2021/09/02 12:23:53;;;;;;;13.85;5.07;;;;;;;;;;4813758;29;50977;-65
2021/09/02 12:26:21;;;;;;;9.63;5.18;;;;;;;;;;4813297;29;51165;-72
2021/09/02 12:28:52;;;;;;;13.55;5.20;;;;;;;;;;4797470;29;50908;-69
2021/09/02 12:31:31;;;;;;;11.70;4.90;;;;;;;;;;4795481;29;51034;-65
2021/09/02 12:34:01;;;;;;;9.52;5.20;;;;;;;;;;4805209;29;51071;-67
2021/09/02 12:36:38;;;;;;;8.27;5.13;;;;;;;;;;4799310;29;51106;-65
2021/09/02 12:39:26;;;;;;;11.13;6.43;;;;;;;;;;4783330;29;52779;-65
2021/09/02 12:41:55;;;;;;;13.40;5.72;;;;;;;;;;4779720;29;51125;-65
2021/09/02 12:44:28;;;;;;;18.80;6.05;;;;;;;;;;4782142;29;51128;-67
2021/09/02 12:47:17;;;;;;;12.85;6.63;;;;;;;;;;4782693;29;50956;-68
2021/09/02 12:49:45;;;;;;;43.65;7.72;;;;;;;;;;4768411;29;52440;-73
2021/09/02 12:52:12;;;;;;;19.48;7.15;;;;;;;;;;4756622;29;51369;-68
2021/09/02 12:55:23;;;;;;;18.15;6.53;;;;;;;;;;4654027;29;51166;-69
2021/09/02 12:57:50;;;;;;;12.77;6.45;;;;;;;;;;4773880;29;51068;-73
2021/09/02 13:00:23;;;;;;;11.60;6.70;;;;;;;;;;4777494;29;51336;-72
2021/09/02 13:02:55;;;;;;;15.40;6.53;;;;;;;;;;4812126;29;52808;-72
2021/09/02 13:05:22;;;;;;;18.08;6.78;;;;;;;;;;4831051;29;50945;-75
2021/09/02 13:07:53;;;;;;;17.30;6.43;;;;;;;;;;4808568;29;51731;-68
2021/09/02 13:10:29;;;;;;;9.48;5.47;;;;;;;;;;4794800;29;57073;-74
2021/09/02 13:12:56;;;;;;;16.45;6.00;;;;;;;;;;4781727;29;51026;-68
2021/09/02 13:15:23;;;;;;;11.88;5.70;;;;;;;;;;4785255;29;51185;-65
2021/09/02 13:17:50;;;;;;;12.52;5.07;;;;;;;;;;4766732;29;51120;-66
2021/09/02 13:20:17;;;;;;;14.88;5.25;;;;;;;;;;4792424;29;50948;-65
2021/09/02 13:22:43;;;;;;;23.27;5.07;;;;;;;;;;4570882;29;51644;-67
2021/09/02 13:25:11;;;;;;;13.98;5.00;;;;;;;;;;4550389;29;53429;-65
2021/09/02 13:27:37;;;;;;;16.88;5.28;;;;;;;;;;4812916;29;51027;-65
2021/09/02 13:30:06;;;;;;;15.30;5.40;;;;;;;;;;4801946;29;50996;-66
2021/09/02 13:32:32;;;;;;;10.73;5.07;;;;;;;;;;4781454;29;52103;-66
2021/09/02 13:34:59;;;;;;;16.73;5.10;;;;;;;;;;4813329;29;51122;-66
2021/09/02 13:37:25;;;;;;;9.35;4.90;;;;;;;;;;4799953;29;52216;-65
2021/09/02 13:39:51;;;;;;;7.70;4.95;;;;;;;;;;4813236;29;51019;-65
2021/09/02 13:42:17;;;;;;;10.43;4.25;;;;;;;;;;4812697;29;50965;-65
2021/09/02 13:44:44;;;;;;;12.57;4.90;;;;;;;;;;4752362;29;50997;-66
2021/09/02 13:47:10;;;;;;;10.18;4.45;;;;;;;;;;4811727;29;52759;-65
2021/09/02 13:49:36;;;;;;;8.10;4.60;;;;;;;;;;4812585;29;50972;-66
2021/09/02 13:52:02;;;;;;;9.75;5.00;;;;;;;;;;4813154;29;50958;-66
2021/09/02 13:54:28;;;;;;;10.40;4.60;;;;;;;;;;4813300;29;50929;-65
2021/09/02 13:56:54;;;;;;;8.43;4.78;;;;;;;;;;4813036;29;54254;-66
2021/09/02 13:59:20;;;;;;;8.02;4.20;;;;;;;;;;4812966;29;51048;-66
2021/09/02 14:01:46;;;;;;;5.75;4.90;;;;;;;;;;4812712;29;50838;-65
2021/09/02 14:04:12;;;;;;;8.32;4.50;;;;;;;;;;4812745;29;51071;-65
2021/09/02 14:06:38;;;;;;;16.17;4.38;;;;;;;;;;4812661;29;51465;-66
2021/09/02 14:09:05;;;;;;;11.02;4.97;;;;;;;;;;4811124;29;52818;-65
2021/09/02 14:11:31;;;;;;;12.60;4.78;;;;;;;;;;4811382;29;51182;-65
2021/09/02 14:13:57;;;;;;;8.75;4.82;;;;;;;;;;4803971;29;52473;-65
2021/09/02 14:16:24;;;;;;;11.57;4.90;;;;;;;;;;4802908;29;51076;-65
2021/09/02 14:18:50;;;;;;;12.07;5.18;;;;;;;;;;4792957;29;54916;-66
2021/09/02 14:21:16;;;;;;;10.05;5.30;;;;;;;;;;4802632;29;51135;-65
2021/09/02 14:23:42;;;;;;;11.55;5.40;;;;;;;;;;4812835;29;50967;-65
2021/09/02 14:26:08;;;;;;;21.10;5.07;;;;;;;;;;4811759;29;50928;-65
2021/09/02 14:28:34;;;;;;;9.38;5.28;;;;;;;;;;4808307;29;50956;-65
2021/09/02 14:31:00;;;;;;;11.32;5.20;;;;;;;;;;4811844;29;52515;-65
2021/09/02 14:33:27;;;;;;;10.15;5.50;;;;;;;;;;4812485;29;50846;-66
2021/09/02 14:35:53;;;;;;;9.93;5.55;;;;;;;;;;4805374;29;51190;-65
2021/09/02 14:38:19;;;;;;;9.43;5.15;;;;;;;;;;4815421;29;50974;-65